Anderson Township, OH

9:30 AM EST on December 27, 2014 (GMT -0500)
APRSWXNET Cincinnati OH US | Change Station
CLOSE
Current Station
Personal Weather Station
Location: Anderson, OH
Elevation: 862 ft
Nearby Weather Stations

Elev 862 ft 39.09 °N, 84.33 °W | Updated 31 minutes ago

Overcast
Overcast
43 °F
Feels Like 43 °F
N
3
Wind Variable Wind from SSE
Gusts 8.0 mph

Today
High -- | Low -- °F
--% Chance of Precip.
Yesterday
High -- | Low -- °F
Precip. -- in
7:55 AM 5:21 PM
Waxing Crescent, 37% visible
Pressure 30.24 in
Visibility 10.0 miles
Clouds Mostly Cloudy 8000 ft
Overcast 10000 ft
Windchill 43 °F
Dew Point 37 °F
Humidity 78%
Rainfall 0.01 in
Snow Depth Not available.
UV 0 out of 12
Pollen .10 out of 12
Air Quality Not available.
Flu Activity Not available.
METAR KLUK 271353Z 25003KT 10SM -RA BKN080 OVC100 04/03 A3023 RMK AO2 SLP240 P0001 T00440033

More Conditions Fewer Conditions

Pressure 30.24 in
Visibility 10.0 miles
Clouds Mostly Cloudy 8000 ft
Overcast 10000 ft
Windchill 43 °F
Dew Point 37 °F
Humidity 78%
Rainfall 0.01 in
Snow Depth Not available.
UV 0 out of 12
Pollen .10 out of 12
Air Quality Not available.
Flu Activity Not available.
METAR KLUK 271353Z 25003KT 10SM -RA BKN080 OVC100 04/03 A3023 RMK AO2 SLP240 P0001 T00440033

More Conditions Fewer Conditions

10-Day Weather Forecast

Almanac

Astronomy

Dec. 27, 2014 Rise Set
Actual Time
Civil Twilight
Nautical Twilight
Astronomical Twilight
Moon
Length of Visible Light
Length of Day
Tomorrow will be .
, % of the Moon is Illuminated

Today's Extremes

State Highs State Lows

Community

WunderPhotos

Upload Photos

1,780,917 photos uploaded!

WunderBlogs® & News

Nearby

Air Quality

  Air Quality AQ Index Pollutant
Not available.

Snow Depth

Station Depth Elevation

Earthquake Activity

City Distance Mag. Time & Date
Minimum magnitude displayed is 2.5.

Coastal Water Temperatures

Place Temperature

Nearby Weather Stations